sensor_id;sensor_type;location;lat;lon;timestamp;temperature;humidity
70244;DHT22;57634;51.136;17.024;2023-04-25T06:34:19;19.00;51.40
70244;DHT22;57634;51.136;17.024;2023-04-25T06:37:21;20.00;47.50
70244;DHT22;57634;51.136;17.024;2023-04-25T06:40:23;20.80;45.50
70244;DHT22;57634;51.136;17.024;2023-04-25T06:43:24;21.60;42.70
70244;DHT22;57634;51.136;17.024;2023-04-25T06:46:25;22.00;41.20
70244;DHT22;57634;51.136;17.024;2023-04-25T06:49:26;22.20;40.30
70244;DHT22;57634;51.136;17.024;2023-04-25T06:52:27;22.60;39.70
70244;DHT22;57634;51.136;17.024;2023-04-25T06:55:28;23.20;39.30
70244;DHT22;57634;51.136;17.024;2023-04-25T06:58:30;23.80;37.50
70244;DHT22;57634;51.136;17.024;2023-04-25T07:01:31;24.30;36.30
70244;DHT22;57634;51.136;17.024;2023-04-25T07:04:33;24.60;35.40
70244;DHT22;57634;51.136;17.024;2023-04-25T07:07:34;25.00;34.40
70244;DHT22;57634;51.136;17.024;2023-04-25T07:10:35;25.20;33.70
70244;DHT22;57634;51.136;17.024;2023-04-25T07:13:36;25.50;33.40
70244;DHT22;57634;51.136;17.024;2023-04-25T07:17:04;26.00;32.80
70244;DHT22;57634;51.136;17.024;2023-04-25T07:20:08;26.40;31.20
70244;DHT22;57634;51.136;17.024;2023-04-25T07:23:11;26.50;30.20
70244;DHT22;57634;51.136;17.024;2023-04-25T07:26:12;26.40;29.60
70244;DHT22;57634;51.136;17.024;2023-04-25T07:29:14;26.20;29.50
70244;DHT22;57634;51.136;17.024;2023-04-25T07:32:15;25.90;29.50
70244;DHT22;57634;51.136;17.024;2023-04-25T07:35:17;25.50;29.80
70244;DHT22;57634;51.136;17.024;2023-04-25T07:38:18;25.10;29.90
70244;DHT22;57634;51.136;17.024;2023-04-25T07:41:19;24.90;30.40
70244;DHT22;57634;51.136;17.024;2023-04-25T07:44:21;24.70;30.50
70244;DHT22;57634;51.136;17.024;2023-04-25T07:47:22;24.40;30.30
70244;DHT22;57634;51.136;17.024;2023-04-25T07:50:23;23.90;30.50
70244;DHT22;57634;51.136;17.024;2023-04-25T07:53:25;23.50;31.60
70244;DHT22;57634;51.136;17.024;2023-04-25T07:56:54;23.30;32.20
70244;DHT22;57634;51.136;17.024;2023-04-25T07:59:55;23.40;32.10
70244;DHT22;57634;51.136;17.024;2023-04-25T08:02:56;23.50;32.00
70244;DHT22;57634;51.136;17.024;2023-04-25T08:05:57;23.00;31.80
70244;DHT22;57634;51.136;17.024;2023-04-25T08:08:58;22.30;32.50
70244;DHT22;57634;51.136;17.024;2023-04-25T08:12:00;21.50;33.70
70244;DHT22;57634;51.136;17.024;2023-04-25T08:15:05;20.60;35.10
70244;DHT22;57634;51.136;17.024;2023-04-25T08:18:08;19.90;36.50
70244;DHT22;57634;51.136;17.024;2023-04-25T08:21:10;19.30;37.80
70244;DHT22;57634;51.136;17.024;2023-04-25T08:24:13;18.90;38.70
70244;DHT22;57634;51.136;17.024;2023-04-25T08:27:14;18.70;39.50
70244;DHT22;57634;51.136;17.024;2023-04-25T08:30:16;18.50;40.00
70244;DHT22;57634;51.136;17.024;2023-04-25T08:33:17;18.20;40.20
70244;DHT22;57634;51.136;17.024;2023-04-25T08:36:45;17.80;40.60
70244;DHT22;57634;51.136;17.024;2023-04-25T08:39:47;17.20;41.70
70244;DHT22;57634;51.136;17.024;2023-04-25T08:42:56;16.80;42.40
70244;DHT22;57634;51.136;17.024;2023-04-25T08:45:59;16.70;43.30
70244;DHT22;57634;51.136;17.024;2023-04-25T08:49:02;16.60;43.60
70244;DHT22;57634;51.136;17.024;2023-04-25T08:52:04;16.60;43.90
70244;DHT22;57634;51.136;17.024;2023-04-25T08:55:09;16.40;44.30
70244;DHT22;57634;51.136;17.024;2023-04-25T08:58:15;16.70;45.50
70244;DHT22;57634;51.136;17.024;2023-04-25T09:01:33;17.90;46.50
70244;DHT22;57634;51.136;17.024;2023-04-25T09:05:10;20.00;43.40
70244;DHT22;57634;51.136;17.024;2023-04-25T09:08:15;21.70;40.00
70244;DHT22;57634;51.136;17.024;2023-04-25T09:11:16;22.60;37.10
70244;DHT22;57634;51.136;17.024;2023-04-25T09:14:20;22.60;35.90
70244;DHT22;57634;51.136;17.024;2023-04-25T09:17:22;22.20;35.30
70244;DHT22;57634;51.136;17.024;2023-04-25T09:20:23;21.70;35.90
70244;DHT22;57634;51.136;17.024;2023-04-25T09:23:28;21.10;36.60
70244;DHT22;57634;51.136;17.024;2023-04-25T09:26:31;20.70;37.40
70244;DHT22;57634;51.136;17.024;2023-04-25T09:29:39;20.20;37.60
70244;DHT22;57634;51.136;17.024;2023-04-25T09:32:43;19.70;38.10
70244;DHT22;57634;51.136;17.024;2023-04-25T09:36:11;19.20;38.90
70244;DHT22;57634;51.136;17.024;2023-04-25T09:39:13;18.60;40.30
70244;DHT22;57634;51.136;17.024;2023-04-25T09:42:27;18.20;41.30
70244;DHT22;57634;51.136;17.024;2023-04-25T09:45:41;17.90;42.10
70244;DHT22;57634;51.136;17.024;2023-04-25T09:48:51;17.70;42.70
70244;DHT22;57634;51.136;17.024;2023-04-25T09:52:25;17.50;43.10
70244;DHT22;57634;51.136;17.024;2023-04-25T09:55:27;17.40;43.70
70244;DHT22;57634;51.136;17.024;2023-04-25T09:58:30;17.50;43.90
70244;DHT22;57634;51.136;17.024;2023-04-25T10:01:35;17.70;43.80
70244;DHT22;57634;51.136;17.024;2023-04-25T10:04:37;17.80;43.60
70244;DHT22;57634;51.136;17.024;2023-04-25T10:07:40;18.00;43.00
70244;DHT22;57634;51.136;17.024;2023-04-25T10:10:42;18.30;42.40
70244;DHT22;57634;51.136;17.024;2023-04-25T10:13:47;18.50;41.70
70244;DHT22;57634;51.136;17.024;2023-04-25T10:16:49;18.60;41.60
70244;DHT22;57634;51.136;17.024;2023-04-25T10:19:55;18.50;41.00
70244;DHT22;57634;51.136;17.024;2023-04-25T10:23:25;18.30;40.70
70244;DHT22;57634;51.136;17.024;2023-04-25T10:26:27;17.90;41.00
70244;DHT22;57634;51.136;17.024;2023-04-25T10:29:32;17.80;41.40
70244;DHT22;57634;51.136;17.024;2023-04-25T10:32:33;17.70;41.60
70244;DHT22;57634;51.136;17.024;2023-04-25T10:35:35;17.80;41.60
70244;DHT22;57634;51.136;17.024;2023-04-25T10:38:36;17.90;41.40
70244;DHT22;57634;51.136;17.024;2023-04-25T10:41:45;17.90;41.30
70244;DHT22;57634;51.136;17.024;2023-04-25T11:05:10;18.50;41.30
70244;DHT22;57634;51.136;17.024;2023-04-25T18:26:36;11.50;61.00
70244;DHT22;57634;51.136;17.024;2023-04-25T18:32:44;11.40;61.40
70244;DHT22;57634;51.136;17.024;2023-04-25T18:35:47;11.30;61.50
70244;DHT22;57634;51.136;17.024;2023-04-25T18:38:49;11.30;61.50
70244;DHT22;57634;51.136;17.024;2023-04-25T18:41:54;11.40;61.70
70244;DHT22;57634;51.136;17.024;2023-04-25T18:44:57;11.30;61.50
70244;DHT22;57634;51.136;17.024;2023-04-25T18:47:58;11.30;61.60
70244;DHT22;57634;51.136;17.024;2023-04-25T18:51:01;11.30;61.60
70244;DHT22;57634;51.136;17.024;2023-04-25T18:54:02;11.30;61.60
70244;DHT22;57634;51.136;17.024;2023-04-25T18:57:04;11.30;61.70
70244;DHT22;57634;51.136;17.024;2023-04-25T19:00:32;11.20;61.80
70244;DHT22;57634;51.136;17.024;2023-04-25T19:03:35;11.10;62.00
70244;DHT22;57634;51.136;17.024;2023-04-25T19:06:38;11.10;62.20
70244;DHT22;57634;51.136;17.024;2023-04-25T19:09:39;11.10;62.30
70244;DHT22;57634;51.136;17.024;2023-04-25T19:12:40;11.00;62.30
70244;DHT22;57634;51.136;17.024;2023-04-25T19:15:41;11.00;62.20
70244;DHT22;57634;51.136;17.024;2023-04-25T19:18:43;10.90;62.10
70244;DHT22;57634;51.136;17.024;2023-04-25T19:21:44;10.90;62.20
70244;DHT22;57634;51.136;17.024;2023-04-25T19:24:46;10.80;62.20
70244;DHT22;57634;51.136;17.024;2023-04-25T19:27:47;10.70;62.00
70244;DHT22;57634;51.136;17.024;2023-04-25T19:30:48;10.70;62.00
70244;DHT22;57634;51.136;17.024;2023-04-25T19:33:50;10.60;62.00
70244;DHT22;57634;51.136;17.024;2023-04-25T19:36:51;10.60;61.80
70244;DHT22;57634;51.136;17.024;2023-04-25T19:39:54;10.50;61.60
70244;DHT22;57634;51.136;17.024;2023-04-25T19:43:22;10.40;61.40
70244;DHT22;57634;51.136;17.024;2023-04-25T19:46:23;10.30;61.10
70244;DHT22;57634;51.136;17.024;2023-04-25T19:49:25;10.20;61.00
70244;DHT22;57634;51.136;17.024;2023-04-25T19:52:27;10.10;60.90
70244;DHT22;57634;51.136;17.024;2023-04-25T19:55:31;10.10;60.50
70244;DHT22;57634;51.136;17.024;2023-04-25T19:58:32;9.90;60.10
70244;DHT22;57634;51.136;17.024;2023-04-25T20:01:34;9.80;59.90
70244;DHT22;57634;51.136;17.024;2023-04-25T20:04:36;9.80;59.70
70244;DHT22;57634;51.136;17.024;2023-04-25T20:07:38;9.70;59.60
70244;DHT22;57634;51.136;17.024;2023-04-25T20:10:40;9.60;59.40
70244;DHT22;57634;51.136;17.024;2023-04-25T20:13:42;9.50;59.40
70244;DHT22;57634;51.136;17.024;2023-04-25T20:16:44;9.40;59.50
70244;DHT22;57634;51.136;17.024;2023-04-25T20:19:47;9.40;59.40
70244;DHT22;57634;51.136;17.024;2023-04-25T20:23:14;9.30;59.40
70244;DHT22;57634;51.136;17.024;2023-04-25T20:26:15;9.30;59.50
70244;DHT22;57634;51.136;17.024;2023-04-25T20:29:17;9.20;59.20
70244;DHT22;57634;51.136;17.024;2023-04-25T20:32:18;9.20;59.20
70244;DHT22;57634;51.136;17.024;2023-04-25T20:35:19;9.10;59.10
70244;DHT22;57634;51.136;17.024;2023-04-25T20:38:22;9.10;59.00
70244;DHT22;57634;51.136;17.024;2023-04-25T20:41:23;9.10;59.00
70244;DHT22;57634;51.136;17.024;2023-04-25T20:44:24;9.00;58.90
70244;DHT22;57634;51.136;17.024;2023-04-25T20:47:26;9.00;59.00
70244;DHT22;57634;51.136;17.024;2023-04-25T20:50:29;8.90;58.90
70244;DHT22;57634;51.136;17.024;2023-04-25T20:53:32;8.90;58.90
70244;DHT22;57634;51.136;17.024;2023-04-25T20:56:36;8.90;58.90
70244;DHT22;57634;51.136;17.024;2023-04-25T20:59:37;8.80;58.90
70244;DHT22;57634;51.136;17.024;2023-04-25T21:03:06;8.80;58.90
70244;DHT22;57634;51.136;17.024;2023-04-25T21:06:08;8.70;58.90
70244;DHT22;57634;51.136;17.024;2023-04-25T21:09:10;8.70;59.00
70244;DHT22;57634;51.136;17.024;2023-04-25T21:12:11;8.70;59.10
70244;DHT22;57634;51.136;17.024;2023-04-25T21:15:14;8.60;59.30
70244;DHT22;57634;51.136;17.024;2023-04-25T21:18:19;8.60;59.40
70244;DHT22;57634;51.136;17.024;2023-04-25T21:21:21;8.50;59.30
70244;DHT22;57634;51.136;17.024;2023-04-25T21:24:22;8.50;59.40
70244;DHT22;57634;51.136;17.024;2023-04-25T21:27:26;8.50;59.60
70244;DHT22;57634;51.136;17.024;2023-04-25T21:30:28;8.40;59.70
70244;DHT22;57634;51.136;17.024;2023-04-25T21:33:30;8.40;59.80
70244;DHT22;57634;51.136;17.024;2023-04-25T21:36:31;8.40;59.80
70244;DHT22;57634;51.136;17.024;2023-04-25T21:40:00;8.40;59.90
70244;DHT22;57634;51.136;17.024;2023-04-25T21:43:02;8.30;59.90
70244;DHT22;57634;51.136;17.024;2023-04-25T21:46:03;8.30;60.10
70244;DHT22;57634;51.136;17.024;2023-04-25T21:49:04;8.20;60.20
70244;DHT22;57634;51.136;17.024;2023-04-25T21:52:06;8.10;60.20
70244;DHT22;57634;51.136;17.024;2023-04-25T21:55:08;8.10;60.40
70244;DHT22;57634;51.136;17.024;2023-04-25T21:58:11;8.00;60.60
70244;DHT22;57634;51.136;17.024;2023-04-25T22:01:12;8.00;60.70
70244;DHT22;57634;51.136;17.024;2023-04-25T22:04:15;8.00;60.80
70244;DHT22;57634;51.136;17.024;2023-04-25T22:07:16;8.00;60.80
70244;DHT22;57634;51.136;17.024;2023-04-25T22:10:19;8.00;60.80
70244;DHT22;57634;51.136;17.024;2023-04-25T22:13:20;8.00;60.80
70244;DHT22;57634;51.136;17.024;2023-04-25T22:16:22;8.00;60.80
70244;DHT22;57634;51.136;17.024;2023-04-25T22:19:53;8.00;60.90
70244;DHT22;57634;51.136;17.024;2023-04-25T22:22:54;8.00;61.10
70244;DHT22;57634;51.136;17.024;2023-04-25T22:25:56;7.90;61.20
70244;DHT22;57634;51.136;17.024;2023-04-25T22:28:58;7.90;61.50
70244;DHT22;57634;51.136;17.024;2023-04-25T22:31:59;7.80;61.60
70244;DHT22;57634;51.136;17.024;2023-04-25T22:35:02;7.80;61.80
70244;DHT22;57634;51.136;17.024;2023-04-25T22:38:04;7.80;62.00
70244;DHT22;57634;51.136;17.024;2023-04-25T22:41:06;7.80;62.00
70244;DHT22;57634;51.136;17.024;2023-04-25T22:44:08;7.70;62.00
70244;DHT22;57634;51.136;17.024;2023-04-25T22:47:11;7.70;62.00
70244;DHT22;57634;51.136;17.024;2023-04-25T22:50:12;7.70;62.10
70244;DHT22;57634;51.136;17.024;2023-04-25T22:53:17;7.70;62.10
70244;DHT22;57634;51.136;17.024;2023-04-25T22:56:18;7.70;62.10
70244;DHT22;57634;51.136;17.024;2023-04-25T22:59:45;7.70;62.20
70244;DHT22;57634;51.136;17.024;2023-04-25T23:02:46;7.70;62.30
70244;DHT22;57634;51.136;17.024;2023-04-25T23:05:49;7.60;62.50
70244;DHT22;57634;51.136;17.024;2023-04-25T23:08:51;7.60;62.80
70244;DHT22;57634;51.136;17.024;2023-04-25T23:11:52;7.60;63.10
70244;DHT22;57634;51.136;17.024;2023-04-25T23:14:53;7.50;63.10
70244;DHT22;57634;51.136;17.024;2023-04-25T23:17:58;7.50;63.30
70244;DHT22;57634;51.136;17.024;2023-04-25T23:21:00;7.40;63.40
70244;DHT22;57634;51.136;17.024;2023-04-25T23:24:02;7.40;63.50
70244;DHT22;57634;51.136;17.024;2023-04-25T23:27:05;7.40;63.50
70244;DHT22;57634;51.136;17.024;2023-04-25T23:30:08;7.40;63.50
70244;DHT22;57634;51.136;17.024;2023-04-25T23:33:10;7.40;63.50
70244;DHT22;57634;51.136;17.024;2023-04-25T23:36:40;7.40;63.40
70244;DHT22;57634;51.136;17.024;2023-04-25T23:39:46;7.30;63.40
70244;DHT22;57634;51.136;17.024;2023-04-25T23:42:50;7.30;63.50
70244;DHT22;57634;51.136;17.024;2023-04-25T23:45:51;7.20;63.60
70244;DHT22;57634;51.136;17.024;2023-04-25T23:48:54;7.20;63.60
70244;DHT22;57634;51.136;17.024;2023-04-25T23:51:55;7.20;63.60
70244;DHT22;57634;51.136;17.024;2023-04-25T23:54:56;7.20;63.60
70244;DHT22;57634;51.136;17.024;2023-04-25T23:57:58;7.10;63.60
